Terminal Aerodrome Forecast
Issued by NWS

Home | Current Version | Previous Version | Text Only | Print | Product List | Glossary On
Versions: 1 2 3 4 5 6 7 8 9 10 11 12 13 14 15 16 17 18 19 20 21 22 23 24 25 26
000
FTUS41 KBUF 261403 AAA
TAFIAG
TAF AMD
KIAG 261403Z 2614/2712 06003KT P6SM OVC025
     FM261600 VRB03KT P6SM SCT025 BKN040
     FM261900 08004KT P6SM BKN040
     FM262100 07005KT P6SM SCT100
     FM270300 11005KT P6SM SKC
     FM270600 16006KT P6SM FEW250=

USA.gov is the U.S. government's official web portal to all federal, state and local government web resources and services.